Time;durP1;ratioP1;P1;durP2;ratioP2;P2;SDS_P1;SDS_P2;PMS_P1;PMS_P2;Temp;Humidity;BMP_temperature;BMP_pressure;BME280_temperature;BME280_humidity;BME280_pressure;Samples;Min_cycle;Max_cycle;Signal;HPM_P1;HPM_P2
2020/12/24 09:31:36;;;;;;;1.80;0.98;;;11.10;91.60;;;;;;5109677;27;20382;-49
2020/12/24 09:34:02;;;;;;;2.67;0.75;;;11.10;90.80;;;;;;5070598;27;149234;-49
2020/12/24 09:36:27;;;;;;;1.75;0.60;;;10.90;91.20;;;;;;5068047;28;20463;-49
2020/12/24 09:38:53;;;;;;;0.65;0.63;;;10.70;91.50;;;;;;5068790;28;20092;-49
2020/12/24 09:41:19;;;;;;;0.45;0.45;;;10.70;91.70;;;;;;5069223;28;20037;-49
2020/12/24 09:43:44;;;;;;;0.38;0.38;;;10.60;91.80;;;;;;5069747;28;20405;-49
2020/12/24 09:46:13;;;;;;;1.13;0.52;;;10.50;91.80;;;;;;5069638;28;20486;-50
2020/12/24 09:48:39;;;;;;;0.50;0.50;;;10.60;91.80;;;;;;5067997;28;20035;-50
2020/12/24 09:51:05;;;;;;;0.40;0.40;;;10.50;91.90;;;;;;5064602;28;20111;-50
2020/12/24 09:53:30;;;;;;;0.50;0.50;;;10.50;91.80;;;;;;5069431;28;20434;-50
2020/12/24 09:55:56;;;;;;;1.70;0.68;;;10.50;91.80;;;;;;5051776;28;20395;-50
2020/12/24 10:00:57;;;;;;;0.60;0.57;;;10.50;91.80;;;;;;5206116;23;20525;-50
2020/12/24 10:03:23;;;;;;;0.63;0.52;;;10.40;91.70;;;;;;4980441;28;20055;-50
2020/12/24 10:05:49;;;;;;;2.35;0.73;;;10.40;91.90;;;;;;4970530;28;20043;-50
2020/12/24 10:08:14;;;;;;;0.40;0.40;;;10.40;92.10;;;;;;4969885;28;20420;-50
2020/12/24 10:10:43;;;;;;;0.50;0.50;;;10.50;92.20;;;;;;4971057;28;20117;-50
2020/12/24 10:13:09;;;;;;;4.53;0.70;;;10.50;92.20;;;;;;4970015;28;20020;-50
2020/12/24 10:15:34;;;;;;;3.78;0.90;;;10.50;92.00;;;;;;4985075;28;20041;-49
2020/12/24 10:18:00;;;;;;;0.80;0.73;;;10.50;92.20;;;;;;4976522;28;20431;-50
2020/12/24 10:20:25;;;;;;;2.70;0.63;;;10.50;92.00;;;;;;4970094;28;20039;-50
2020/12/24 10:22:52;;;;;;;2.05;0.90;;;10.50;92.10;;;;;;4969819;28;20441;-50
2020/12/24 10:25:17;;;;;;;11.07;1.10;;;10.60;92.00;;;;;;4970531;28;20038;-50
2020/12/24 10:27:43;;;;;;;2.53;0.52;;;10.60;91.90;;;;;;4970332;28;20031;-49
2020/12/24 10:30:09;;;;;;;5.65;0.82;;;10.50;91.90;;;;;;4966145;28;20066;-50
2020/12/24 10:32:36;;;;;;;0.60;0.60;;;10.50;91.70;;;;;;4969085;28;20444;-50
2020/12/24 10:35:02;;;;;;;0.50;0.50;;;10.50;91.80;;;;;;4981117;28;20082;-50
2020/12/24 10:37:30;;;;;;;1.15;0.55;;;10.50;92.00;;;;;;4979815;28;20241;-50
2020/12/24 10:39:55;;;;;;;0.73;0.50;;;10.60;92.00;;;;;;4984695;28;20030;-50
2020/12/24 10:42:21;;;;;;;0.40;0.40;;;10.60;91.90;;;;;;4974040;28;20089;-50
2020/12/24 10:44:47;;;;;;;0.40;0.40;;;10.60;92.00;;;;;;4969561;28;20023;-50
2020/12/24 10:47:12;;;;;;;0.50;0.50;;;10.60;91.70;;;;;;4964639;28;20035;-50
2020/12/24 10:49:41;;;;;;;1.48;0.60;;;10.60;91.80;;;;;;4960229;28;20524;-50
2020/12/24 10:52:09;;;;;;;3.08;1.17;;;10.60;91.70;;;;;;4973929;28;20043;-50
2020/12/24 10:54:34;;;;;;;2.22;0.70;;;10.60;91.80;;;;;;4971396;28;20038;-50
2020/12/24 10:57:00;;;;;;;0.40;0.40;;;10.60;91.90;;;;;;4973315;28;20027;-50
2020/12/24 10:59:26;;;;;;;1.63;0.55;;;10.60;91.90;;;;;;4975785;28;20038;-50
2020/12/24 11:01:51;;;;;;;0.30;0.30;;;10.60;91.90;;;;;;4975591;28;20035;-50
2020/12/24 11:04:17;;;;;;;0.50;0.50;;;10.60;91.80;;;;;;4976339;28;20360;-50
2020/12/24 11:06:44;;;;;;;0.68;0.40;;;10.60;91.90;;;;;;4973720;28;20023;-49
2020/12/24 11:09:10;;;;;;;0.80;0.50;;;10.60;91.60;;;;;;4975929;28;20033;-50
2020/12/24 11:11:37;;;;;;;0.95;0.40;;;10.60;91.70;;;;;;4986451;28;20030;-50
2020/12/24 11:14:03;;;;;;;0.45;0.45;;;10.60;91.80;;;;;;4982190;28;20088;-50
2020/12/24 11:16:29;;;;;;;0.35;0.35;;;10.60;91.90;;;;;;4975710;28;20113;-49
2020/12/24 11:18:54;;;;;;;0.60;0.60;;;10.60;91.70;;;;;;4981362;28;20054;-50
2020/12/24 11:21:20;;;;;;;0.40;0.40;;;10.60;91.60;;;;;;4974399;28;20203;-50
2020/12/24 11:23:46;;;;;;;0.30;0.30;;;10.60;91.60;;;;;;4975134;28;20034;-50
2020/12/24 11:26:25;;;;;;;1.08;0.73;;;10.60;91.80;;;;;;4973825;28;20086;-50
2020/12/24 11:28:54;;;;;;;0.30;0.30;;;10.60;91.60;;;;;;4969912;28;95526;-50
2020/12/24 11:31:31;;;;;;;0.80;0.60;;;10.60;91.80;;;;;;4974730;28;20046;-50
2020/12/24 11:33:57;;;;;;;4.65;1.20;;;10.60;91.70;;;;;;4987552;28;20042;-50
2020/12/24 11:36:23;;;;;;;1.75;0.65;;;10.60;91.90;;;;;;4975602;28;20027;-50
2020/12/24 11:38:49;;;;;;;1.15;0.50;;;10.60;91.80;;;;;;4973789;28;20042;-50
2020/12/24 11:41:19;;;;;;;0.82;0.75;;;10.60;91.70;;;;;;4979318;28;20027;-50
2020/12/24 11:43:45;;;;;;;0.52;0.50;;;10.60;91.80;;;;;;4975111;28;20518;-50
2020/12/24 11:46:12;;;;;;;0.70;0.57;;;10.60;91.70;;;;;;4972937;28;20030;-50
2020/12/24 11:48:38;;;;;;;0.52;0.52;;;10.60;91.90;;;;;;4973160;28;20031;-50
2020/12/24 11:51:12;;;;;;;0.45;0.45;;;10.60;91.70;;;;;;4972463;28;20412;-50
2020/12/24 11:53:38;;;;;;;0.73;0.47;;;10.60;91.80;;;;;;4970715;28;20459;-50
2020/12/24 11:56:14;;;;;;;0.63;0.50;;;10.60;91.80;;;;;;4972229;28;20081;-50
2020/12/24 11:58:41;;;;;;;0.60;0.60;;;10.60;91.80;;;;;;4971789;28;20440;-50
2020/12/24 12:01:06;;;;;;;0.65;0.60;;;10.60;91.80;;;;;;4971668;28;20043;-50
2020/12/24 12:03:32;;;;;;;0.88;0.70;;;10.60;92.00;;;;;;4969048;28;20031;-50
2020/12/24 12:05:57;;;;;;;0.30;0.30;;;10.60;91.60;;;;;;4967080;28;20039;-50
2020/12/24 12:08:23;;;;;;;0.63;0.63;;;10.60;91.90;;;;;;4967328;28;20456;-50
2020/12/24 12:10:49;;;;;;;0.60;0.60;;;10.60;91.90;;;;;;4970586;28;20438;-50
2020/12/24 12:13:15;;;;;;;0.30;0.30;;;10.70;92.00;;;;;;4972897;28;20158;-50
2020/12/24 12:15:42;;;;;;;0.43;0.43;;;10.60;91.90;;;;;;4972839;28;20038;-50
2020/12/24 12:18:07;;;;;;;0.50;0.50;;;10.70;91.80;;;;;;4957621;28;20355;-50
2020/12/24 12:20:34;;;;;;;0.60;0.60;;;10.70;91.80;;;;;;4972401;28;20030;-50
2020/12/24 12:23:00;;;;;;;1.00;0.70;;;10.70;91.90;;;;;;4973929;28;20121;-49
2020/12/24 12:25:26;;;;;;;2.30;0.75;;;10.70;91.80;;;;;;4974480;28;20118;-49
2020/12/24 12:27:52;;;;;;;0.40;0.40;;;10.70;91.90;;;;;;4973352;28;20106;-50
2020/12/24 12:30:17;;;;;;;0.60;0.60;;;10.70;91.80;;;;;;4970821;28;20035;-50
2020/12/24 12:32:43;;;;;;;0.43;0.43;;;10.70;91.90;;;;;;4973645;28;20027;-49
2020/12/24 12:35:09;;;;;;;0.40;0.40;;;10.70;91.60;;;;;;4973449;28;20062;-50
2020/12/24 12:37:36;;;;;;;0.50;0.50;;;10.70;91.80;;;;;;4974342;28;20069;-50
2020/12/24 12:40:04;;;;;;;0.40;0.40;;;10.70;91.70;;;;;;4971137;28;20020;-50
2020/12/24 12:42:31;;;;;;;0.70;0.70;;;10.70;91.90;;;;;;4959896;28;20074;-49
2020/12/24 12:44:57;;;;;;;0.68;0.52;;;10.70;91.90;;;;;;4971162;28;20077;-49
2020/12/24 12:47:23;;;;;;;0.68;0.50;;;10.70;91.80;;;;;;4974272;28;20455;-50
2020/12/24 12:49:49;;;;;;;0.52;0.52;;;10.70;91.80;;;;;;4973781;28;20077;-50
2020/12/24 12:52:15;;;;;;;0.55;0.55;;;10.70;91.90;;;;;;4973593;28;20062;-50
2020/12/24 12:54:41;;;;;;;2.58;0.40;;;10.70;91.80;;;;;;4973002;28;20058;-50
2020/12/24 12:57:06;;;;;;;0.43;0.43;;;10.70;91.80;;;;;;4981708;28;20022;-49
2020/12/24 12:59:32;;;;;;;0.38;0.38;;;10.70;91.80;;;;;;4977746;28;20061;-50
2020/12/24 13:01:57;;;;;;;0.32;0.32;;;10.70;91.60;;;;;;4965608;28;20051;-49
2020/12/24 13:04:23;;;;;;;1.85;0.85;;;10.70;91.50;;;;;;4973162;28;20077;-50
2020/12/24 13:06:49;;;;;;;0.47;0.30;;;10.60;91.60;;;;;;4979345;28;20344;-50
2020/12/24 13:09:14;;;;;;;0.57;0.50;;;10.60;91.80;;;;;;4975315;28;20027;-49
2020/12/24 13:11:48;;;;;;;0.40;0.40;;;10.70;91.80;;;;;;4986765;28;20023;-50
2020/12/24 13:14:19;;;;;;;1.42;0.85;;;10.70;91.80;;;;;;4974360;28;20034;-50
2020/12/24 13:16:49;;;;;;;1.33;0.70;;;10.70;91.70;;;;;;4975437;28;20019;-50
2020/12/24 13:19:15;;;;;;;2.00;0.90;;;10.70;91.80;;;;;;4975494;28;20030;-50
2020/12/24 13:21:41;;;;;;;1.90;1.10;;;10.70;91.70;;;;;;4983055;28;20038;-50
2020/12/24 13:24:07;;;;;;;0.90;0.90;;;10.70;91.80;;;;;;4973340;28;20023;-50
2020/12/24 13:26:33;;;;;;;1.60;1.05;;;10.70;91.50;;;;;;4973093;28;20066;-50
2020/12/24 13:28:59;;;;;;;1.17;0.90;;;10.70;91.70;;;;;;4944471;28;20065;-50
2020/12/24 13:31:25;;;;;;;1.15;1.05;;;10.70;91.80;;;;;;4973121;28;20049;-49
2020/12/24 13:33:53;;;;;;;1.15;0.73;;;10.70;91.60;;;;;;4973966;28;20105;-50
2020/12/24 13:36:19;;;;;;;3.67;1.10;;;10.70;91.70;;;;;;4973505;28;20416;-50
2020/12/24 13:38:45;;;;;;;1.17;1.00;;;10.70;91.60;;;;;;4973550;28;20023;-49
2020/12/24 13:41:14;;;;;;;0.80;0.73;;;10.70;91.60;;;;;;4973271;28;20078;-50
2020/12/24 13:43:40;;;;;;;1.55;0.90;;;10.70;91.60;;;;;;4973419;28;20026;-50
2020/12/24 13:46:10;;;;;;;0.90;0.70;;;10.70;91.40;;;;;;4973900;28;20015;-50
2020/12/24 13:48:36;;;;;;;1.92;1.13;;;10.70;91.60;;;;;;4973740;28;20114;-50
2020/12/24 13:51:03;;;;;;;2.35;1.23;;;10.70;91.70;;;;;;4973336;28;20262;-50
2020/12/24 13:53:29;;;;;;;1.30;0.70;;;10.70;91.70;;;;;;4967473;28;20027;-50
2020/12/24 13:55:54;;;;;;;0.60;0.60;;;10.70;91.70;;;;;;4967572;28;20030;-50
2020/12/24 13:58:20;;;;;;;0.50;0.50;;;10.70;91.80;;;;;;4972049;28;20031;-50
2020/12/24 14:00:46;;;;;;;1.17;0.63;;;10.70;91.70;;;;;;4969115;28;20074;-50
2020/12/24 14:03:11;;;;;;;0.82;0.70;;;10.70;91.80;;;;;;4970535;28;20055;-49
2020/12/24 14:05:37;;;;;;;0.50;0.50;;;10.70;91.80;;;;;;4973515;28;20096;-50
2020/12/24 14:08:03;;;;;;;0.90;0.65;;;10.70;91.60;;;;;;4973359;28;20035;-49
2020/12/24 14:10:28;;;;;;;3.28;0.80;;;10.70;91.60;;;;;;4973159;28;20035;-50
2020/12/24 14:12:54;;;;;;;0.52;0.45;;;10.70;91.70;;;;;;4972675;28;20038;-50
2020/12/24 14:15:19;;;;;;;0.50;0.50;;;10.70;91.70;;;;;;4971926;28;20031;-50
2020/12/24 14:17:45;;;;;;;0.50;0.50;;;10.70;91.60;;;;;;4984893;28;20101;-50
2020/12/24 14:20:11;;;;;;;1.35;0.70;;;10.70;91.70;;;;;;4988467;28;20118;-50
2020/12/24 14:22:36;;;;;;;0.77;0.65;;;10.70;91.70;;;;;;4976637;28;20050;-50
2020/12/24 14:25:02;;;;;;;0.50;0.50;;;10.70;91.70;;;;;;4976837;28;20034;-49
2020/12/24 14:27:28;;;;;;;1.70;0.85;;;10.70;91.70;;;;;;4976726;28;20038;-50
2020/12/24 14:29:53;;;;;;;0.75;0.50;;;10.70;91.50;;;;;;4976603;28;20628;-50
2020/12/24 14:32:19;;;;;;;1.48;0.60;;;10.70;91.50;;;;;;4976364;28;20444;-50
2020/12/24 14:34:44;;;;;;;1.13;0.73;;;10.70;91.50;;;;;;4976782;28;20035;-50
2020/12/24 14:37:10;;;;;;;0.63;0.63;;;10.70;91.70;;;;;;4976693;28;20069;-50
2020/12/24 14:39:36;;;;;;;0.55;0.40;;;10.70;91.70;;;;;;4976437;28;20039;-50
2020/12/24 14:42:01;;;;;;;1.02;0.60;;;10.70;91.60;;;;;;4976121;28;20035;-49
2020/12/24 14:44:27;;;;;;;1.50;0.63;;;10.70;91.60;;;;;;4976474;28;20037;-49
2020/12/24 14:46:54;;;;;;;2.90;0.50;;;10.70;91.50;;;;;;4976790;28;20460;-50
2020/12/24 14:49:20;;;;;;;0.73;0.60;;;10.60;91.50;;;;;;4976477;28;20460;-49
2020/12/24 14:51:51;;;;;;;1.15;0.65;;;10.70;91.50;;;;;;4976096;28;20066;-50
2020/12/24 14:54:17;;;;;;;0.70;0.70;;;10.70;91.50;;;;;;4976315;28;20023;-49
2020/12/24 14:56:44;;;;;;;0.95;0.40;;;10.70;91.50;;;;;;4976113;28;20030;-50
2020/12/24 14:59:10;;;;;;;0.50;0.50;;;10.70;91.40;;;;;;4975850;28;20061;-50
2020/12/24 15:01:36;;;;;;;0.82;0.70;;;10.70;91.40;;;;;;4976041;28;20065;-50
2020/12/24 15:04:02;;;;;;;0.43;0.43;;;10.70;91.50;;;;;;4976193;28;20359;-50
2020/12/24 15:06:28;;;;;;;0.70;0.70;;;10.70;91.30;;;;;;4976614;28;20030;-50
2020/12/24 15:08:53;;;;;;;1.30;0.82;;;10.70;91.50;;;;;;4975792;28;20042;-50
2020/12/24 15:11:19;;;;;;;0.60;0.60;;;10.70;91.40;;;;;;4975806;28;20368;-50
2020/12/24 15:13:45;;;;;;;1.55;0.73;;;10.70;91.40;;;;;;4975971;28;20030;-50
2020/12/24 15:16:11;;;;;;;1.20;0.50;;;10.70;91.50;;;;;;4990938;28;20456;-50
2020/12/24 15:18:37;;;;;;;0.50;0.50;;;10.70;91.40;;;;;;4993530;28;20061;-50
2020/12/24 15:21:02;;;;;;;1.00;0.50;;;10.70;91.40;;;;;;4982479;28;20030;-49
2020/12/24 15:23:28;;;;;;;0.63;0.52;;;10.70;91.40;;;;;;4975275;28;20031;-50
2020/12/24 15:25:54;;;;;;;0.63;0.63;;;10.70;91.40;;;;;;4976105;28;20039;-49
2020/12/24 15:28:20;;;;;;;2.92;0.80;;;10.70;91.30;;;;;;4975834;28;20031;-50
2020/12/24 15:30:46;;;;;;;1.35;0.80;;;10.70;91.30;;;;;;4975813;28;20134;-50
2020/12/24 15:33:12;;;;;;;1.75;1.10;;;10.60;91.30;;;;;;4975269;28;20419;-50
2020/12/24 15:35:39;;;;;;;1.00;0.80;;;10.60;91.30;;;;;;4975934;28;20031;-50
2020/12/24 15:38:10;;;;;;;1.42;1.05;;;10.60;91.30;;;;;;4975447;28;20052;-50
2020/12/24 15:40:45;;;;;;;2.83;1.10;;;10.60;91.30;;;;;;4974779;28;20031;-50
2020/12/24 15:43:12;;;;;;;1.40;0.60;;;10.60;91.30;;;;;;4967648;28;20023;-50
2020/12/24 15:45:38;;;;;;;0.60;0.60;;;10.60;91.20;;;;;;4945714;28;20030;-50
2020/12/24 15:48:06;;;;;;;2.67;0.90;;;10.60;91.20;;;;;;4974736;28;20309;-50
2020/12/24 15:50:31;;;;;;;1.23;1.13;;;10.60;91.30;;;;;;4974225;28;20035;-50
2020/12/24 15:52:57;;;;;;;5.15;0.80;;;10.60;91.30;;;;;;4973249;28;20062;-50
2020/12/24 15:55:24;;;;;;;2.40;1.10;;;10.60;91.20;;;;;;4974114;28;20027;-50
2020/12/24 15:57:50;;;;;;;2.05;0.75;;;10.60;91.30;;;;;;4973953;28;20031;-50
2020/12/24 16:00:16;;;;;;;3.03;0.95;;;10.60;91.30;;;;;;4973295;28;20038;-50
2020/12/24 16:02:42;;;;;;;0.70;0.70;;;10.60;91.20;;;;;;4973224;28;20034;-50
2020/12/24 16:05:08;;;;;;;1.02;0.73;;;10.60;91.30;;;;;;4973459;28;20085;-50
2020/12/24 16:07:34;;;;;;;0.80;0.70;;;10.60;91.20;;;;;;4970725;28;20081;-50
2020/12/24 16:10:01;;;;;;;0.80;0.80;;;10.60;91.30;;;;;;4974080;28;20170;-50
2020/12/24 16:12:27;;;;;;;1.60;1.13;;;10.60;91.30;;;;;;4974329;28;20038;-50
2020/12/24 16:14:53;;;;;;;1.75;1.20;;;10.60;91.30;;;;;;4974302;28;20023;-50
2020/12/24 16:17:19;;;;;;;4.93;1.10;;;10.60;91.30;;;;;;4977103;28;20030;-50
2020/12/24 16:19:45;;;;;;;1.85;1.35;;;10.60;91.20;;;;;;4974189;28;20033;-50
2020/12/24 16:22:11;;;;;;;2.50;1.02;;;10.60;91.60;;;;;;4973171;28;20395;-50
2020/12/24 16:24:36;;;;;;;1.25;0.90;;;10.60;91.30;;;;;;4974057;28;20356;-50
2020/12/24 16:27:02;;;;;;;2.80;1.23;;;10.60;91.20;;;;;;4974165;28;20459;-50
2020/12/24 16:29:28;;;;;;;4.15;1.75;;;10.60;91.30;;;;;;4974254;28;20031;-50
2020/12/24 16:31:53;;;;;;;2.50;1.02;;;10.60;91.10;;;;;;4971161;28;20030;-50
2020/12/24 16:34:19;;;;;;;2.00;1.05;;;10.60;91.20;;;;;;4974892;28;20019;-50
2020/12/24 16:36:49;;;;;;;1.73;0.60;;;10.60;91.20;;;;;;4982027;28;20089;-50
2020/12/24 16:39:15;;;;;;;1.00;0.85;;;10.60;91.50;;;;;;4993563;28;20054;-50
2020/12/24 16:41:40;;;;;;;2.38;0.95;;;10.60;91.20;;;;;;4985114;28;20073;-50
2020/12/24 16:44:08;;;;;;;1.98;1.02;;;10.60;91.20;;;;;;4976670;28;20109;-50
2020/12/24 16:46:33;;;;;;;0.52;0.52;;;10.60;91.20;;;;;;4973867;28;20029;-50
2020/12/24 16:48:59;;;;;;;1.70;0.93;;;10.60;91.30;;;;;;4974437;28;20118;-50
2020/12/24 16:51:25;;;;;;;2.45;0.80;;;10.60;91.20;;;;;;4973835;28;20047;-50
2020/12/24 16:53:50;;;;;;;0.52;0.52;;;10.60;91.20;;;;;;4974283;28;20500;-50
2020/12/24 16:56:16;;;;;;;1.63;0.90;;;10.60;91.10;;;;;;4973325;28;20522;-50
2020/12/24 16:58:42;;;;;;;2.20;0.95;;;10.60;91.20;;;;;;4974162;28;20023;-50
2020/12/24 17:01:07;;;;;;;3.85;1.73;;;10.50;91.20;;;;;;4968099;28;20530;-50
2020/12/24 17:03:34;;;;;;;6.28;1.58;;;10.60;91.10;;;;;;4973789;28;20038;-49
2020/12/24 17:06:03;;;;;;;8.38;2.50;;;10.60;91.20;;;;;;4974267;28;20026;-50
2020/12/24 17:08:29;;;;;;;6.72;2.67;;;10.50;91.10;;;;;;4974071;28;20034;-50
2020/12/24 17:10:54;;;;;;;9.45;3.00;;;10.50;91.20;;;;;;4973848;28;20039;-50
2020/12/24 17:13:20;;;;;;;10.35;4.40;;;10.50;91.10;;;;;;4973840;28;20015;-50
2020/12/24 17:15:48;;;;;;;9.60;3.67;;;10.50;91.10;;;;;;4973602;28;20036;-50
2020/12/24 17:18:14;;;;;;;23.58;5.78;;;10.50;91.10;;;;;;4988340;28;20030;-50
2020/12/24 17:20:50;;;;;;;5.80;2.58;;;10.50;91.10;;;;;;4974240;28;20050;-50
2020/12/24 17:23:16;;;;;;;9.25;2.63;;;10.50;91.10;;;;;;4973251;28;20106;-50
2020/12/24 17:25:44;;;;;;;11.77;4.55;;;10.50;91.00;;;;;;4973631;28;20114;-50
2020/12/24 17:28:10;;;;;;;5.53;2.83;;;10.50;91.10;;;;;;4974102;28;20037;-50
2020/12/24 17:30:35;;;;;;;10.10;2.22;;;10.50;91.10;;;;;;4973465;28;20034;-50
2020/12/24 17:33:01;;;;;;;8.07;2.78;;;10.50;91.10;;;;;;4973557;28;20026;-50
2020/12/24 17:35:27;;;;;;;1.48;1.33;;;10.50;91.00;;;;;;4973991;28;20113;-50
2020/12/24 17:37:53;;;;;;;4.45;1.88;;;10.60;91.10;;;;;;4973680;28;20042;-50
2020/12/24 17:40:18;;;;;;;2.13;1.40;;;10.50;91.00;;;;;;4973884;28;20035;-50
2020/12/24 17:42:44;;;;;;;3.08;1.50;;;10.50;91.10;;;;;;4973244;28;20027;-50
2020/12/24 17:45:10;;;;;;;2.05;1.17;;;10.60;91.20;;;;;;4973361;28;20396;-50
2020/12/24 17:47:36;;;;;;;5.50;1.40;;;10.60;91.10;;;;;;4973373;28;20027;-50
2020/12/24 17:50:03;;;;;;;1.85;1.23;;;10.60;91.10;;;;;;4973778;28;20077;-50
2020/12/24 17:52:29;;;;;;;1.50;1.10;;;10.60;91.10;;;;;;4975839;28;20050;-50
2020/12/24 17:54:55;;;;;;;3.53;1.30;;;10.60;91.10;;;;;;4977597;28;20454;-50
2020/12/24 17:57:20;;;;;;;11.75;3.78;;;10.60;91.00;;;;;;4977623;28;20031;-50
2020/12/24 17:59:46;;;;;;;1.50;1.25;;;10.50;91.10;;;;;;4977282;28;20077;-50
2020/12/24 18:02:12;;;;;;;2.33;1.63;;;10.60;91.10;;;;;;4977000;28;20372;-50
2020/12/24 18:04:38;;;;;;;3.78;1.63;;;10.50;91.10;;;;;;4977497;28;20467;-50
2020/12/24 18:07:04;;;;;;;1.77;1.00;;;10.60;91.10;;;;;;4977341;28;20462;-50
2020/12/24 18:09:30;;;;;;;1.33;1.15;;;10.60;91.10;;;;;;4977247;28;20066;-50
2020/12/24 18:11:56;;;;;;;1.15;0.90;;;10.60;91.10;;;;;;4976885;28;20112;-50
2020/12/24 18:14:21;;;;;;;1.67;1.08;;;10.60;91.10;;;;;;4977097;28;20102;-50
2020/12/24 18:16:47;;;;;;;1.40;1.10;;;10.60;91.10;;;;;;4979646;28;20027;-50
2020/12/24 18:19:13;;;;;;;1.40;1.30;;;10.50;91.10;;;;;;4996885;28;20248;-50
2020/12/24 18:21:38;;;;;;;1.55;1.13;;;10.60;91.10;;;;;;4996123;28;20027;-50
2020/12/24 18:24:04;;;;;;;4.35;1.50;;;10.60;91.10;;;;;;4996541;28;20492;-50
2020/12/24 18:26:30;;;;;;;2.03;1.00;;;10.50;91.10;;;;;;4996462;28;20033;-50
2020/12/24 18:28:55;;;;;;;4.75;1.27;;;10.50;91.10;;;;;;4996277;28;20494;-50
2020/12/24 18:31:21;;;;;;;2.55;1.40;;;10.50;91.10;;;;;;4994216;28;20069;-50
2020/12/24 18:33:47;;;;;;;1.42;1.20;;;10.50;91.10;;;;;;4976329;28;20034;-50
2020/12/24 18:36:13;;;;;;;1.00;0.90;;;10.60;91.10;;;;;;4976394;28;20026;-50
2020/12/24 18:38:40;;;;;;;1.85;1.00;;;10.50;91.10;;;;;;4976230;28;20078;-50
2020/12/24 18:41:09;;;;;;;4.68;1.35;;;10.50;91.10;;;;;;4976601;28;20027;-50
2020/12/24 18:43:34;;;;;;;1.27;0.90;;;10.50;91.10;;;;;;4976755;28;20031;-50
2020/12/24 18:46:00;;;;;;;1.85;1.10;;;10.50;91.10;;;;;;4976266;28;20038;-50
2020/12/24 18:48:26;;;;;;;3.00;1.63;;;10.50;91.10;;;;;;4976099;28;20031;-50
2020/12/24 18:50:51;;;;;;;1.45;1.10;;;10.50;91.10;;;;;;4942722;28;20397;-50
2020/12/24 18:53:17;;;;;;;3.08;1.25;;;10.50;91.10;;;;;;4976274;28;20066;-50
2020/12/24 18:55:45;;;;;;;2.97;1.42;;;10.50;91.10;;;;;;4976447;28;20035;-50
2020/12/24 18:58:11;;;;;;;1.63;1.13;;;10.50;91.10;;;;;;4958904;28;20036;-50
2020/12/24 19:00:37;;;;;;;2.25;1.30;;;10.50;91.10;;;;;;4976527;28;20045;-50
2020/12/24 19:03:03;;;;;;;0.75;0.75;;;10.50;91.10;;;;;;4975724;28;20121;-50
2020/12/24 19:05:28;;;;;;;11.18;5.25;;;10.50;91.10;;;;;;4976330;28;20345;-50
2020/12/24 19:07:54;;;;;;;4.60;1.85;;;10.50;91.10;;;;;;4976238;28;20034;-50
2020/12/24 19:10:20;;;;;;;4.38;1.63;;;10.50;91.20;;;;;;4976167;28;20043;-50
2020/12/24 19:12:46;;;;;;;2.50;1.80;;;10.50;91.10;;;;;;4976210;28;20150;-50
2020/12/24 19:15:12;;;;;;;5.80;1.63;;;10.50;91.10;;;;;;4976255;28;20023;-50
2020/12/24 19:17:38;;;;;;;1.85;1.30;;;10.50;91.20;;;;;;4985662;28;20030;-50
2020/12/24 19:20:05;;;;;;;1.67;1.30;;;10.50;91.20;;;;;;4995582;28;20033;-50
2020/12/24 19:22:35;;;;;;;2.53;0.82;;;10.50;91.20;;;;;;4995185;28;20061;-50
2020/12/24 19:25:02;;;;;;;1.67;0.95;;;10.50;91.20;;;;;;4995822;28;20110;-50
2020/12/24 19:27:29;;;;;;;1.85;1.40;;;10.50;91.20;;;;;;4995401;28;20022;-50
2020/12/24 19:29:55;;;;;;;2.08;1.35;;;10.50;91.20;;;;;;4995657;28;20065;-50
2020/12/24 19:32:29;;;;;;;2.42;1.85;;;10.50;91.10;;;;;;4994885;28;20058;-50
2020/12/24 19:34:56;;;;;;;2.75;1.58;;;10.50;91.10;;;;;;4995204;28;20069;-50
2020/12/24 19:37:22;;;;;;;1.63;1.27;;;10.50;91.10;;;;;;4995110;28;20057;-50
2020/12/24 19:39:47;;;;;;;2.35;1.58;;;10.50;91.10;;;;;;4995073;28;20109;-50
2020/12/24 19:42:13;;;;;;;2.20;1.35;;;10.50;91.50;;;;;;4994789;28;20478;-50
2020/12/24 19:44:39;;;;;;;1.10;1.00;;;10.50;91.10;;;;;;4995223;28;20042;-50
2020/12/24 19:47:05;;;;;;;1.98;1.45;;;10.50;91.10;;;;;;4994974;28;20026;-50
2020/12/24 19:49:31;;;;;;;1.88;1.30;;;10.50;91.10;;;;;;4995016;28;20109;-50
2020/12/24 19:51:56;;;;;;;1.98;1.17;;;10.50;91.20;;;;;;4994565;28;20110;-50
2020/12/24 19:54:22;;;;;;;2.83;1.60;;;10.50;91.20;;;;;;4994701;28;20510;-50
2020/12/24 19:56:54;;;;;;;2.55;1.70;;;10.50;91.10;;;;;;4991615;28;20027;-49
2020/12/24 19:59:20;;;;;;;1.73;1.00;;;10.50;91.10;;;;;;4975318;28;20248;-50
2020/12/24 20:01:52;;;;;;;0.93;0.82;;;10.50;91.20;;;;;;4975117;28;20023;-50
2020/12/24 20:04:18;;;;;;;2.53;1.52;;;10.50;91.10;;;;;;4975332;28;20372;-50
2020/12/24 20:06:44;;;;;;;3.35;2.00;;;10.50;91.10;;;;;;4975080;28;20475;-50
2020/12/24 20:09:09;;;;;;;2.72;1.88;;;10.60;91.20;;;;;;4975011;28;20380;-50
2020/12/24 20:11:35;;;;;;;6.00;2.38;;;10.50;91.20;;;;;;4974946;28;20413;-50
2020/12/24 20:14:00;;;;;;;2.97;1.38;;;10.50;91.20;;;;;;4974511;28;20050;-49
2020/12/24 20:16:26;;;;;;;3.55;2.22;;;10.50;91.10;;;;;;4975092;28;20031;-50
2020/12/24 20:18:52;;;;;;;2.00;1.65;;;10.50;91.20;;;;;;4994035;28;20019;-50
2020/12/24 20:21:17;;;;;;;3.47;2.40;;;10.50;91.20;;;;;;4993831;28;20466;-50
2020/12/24 20:23:43;;;;;;;8.07;2.33;;;10.50;91.20;;;;;;4984621;28;20105;-50
2020/12/24 20:26:08;;;;;;;5.30;2.75;;;10.60;91.20;;;;;;4969230;28;20039;-50
2020/12/24 20:28:36;;;;;;;2.80;1.85;;;10.50;91.20;;;;;;4971690;28;20049;-50
2020/12/24 20:31:05;;;;;;;3.60;2.30;;;10.60;91.20;;;;;;4955487;28;20141;-50
2020/12/24 20:33:31;;;;;;;3.97;2.85;;;10.60;91.20;;;;;;4955072;29;20102;-50
2020/12/24 20:35:57;;;;;;;3.13;2.10;;;10.60;91.20;;;;;;4955113;29;20039;-50
2020/12/24 20:38:22;;;;;;;5.18;2.60;;;10.50;91.10;;;;;;4955238;29;20110;-50
2020/12/24 20:40:48;;;;;;;6.40;3.08;;;10.50;91.20;;;;;;4955443;29;20428;-50
2020/12/24 20:43:14;;;;;;;5.18;3.28;;;10.50;91.20;;;;;;4954917;28;20433;-50
2020/12/24 20:45:39;;;;;;;8.57;4.25;;;10.50;91.20;;;;;;4955229;29;20449;-50
2020/12/24 20:48:05;;;;;;;5.28;3.03;;;10.50;91.20;;;;;;4954983;29;20031;-50
2020/12/24 20:50:31;;;;;;;5.53;3.60;;;10.60;91.20;;;;;;4954880;29;20074;-50
2020/12/24 20:52:57;;;;;;;10.98;5.18;;;10.50;91.20;;;;;;4954845;28;20457;-50
2020/12/24 20:55:25;;;;;;;7.78;3.72;;;10.50;91.20;;;;;;4955039;29;20035;-50
2020/12/24 20:57:51;;;;;;;2.38;1.80;;;10.50;91.20;;;;;;4954990;29;20027;-50
2020/12/24 21:00:17;;;;;;;5.15;2.78;;;10.50;91.20;;;;;;4956504;28;20033;-50
2020/12/24 21:02:43;;;;;;;1.45;1.33;;;10.60;91.20;;;;;;4954806;28;20027;-50
2020/12/24 21:05:09;;;;;;;2.08;1.88;;;10.50;91.10;;;;;;4954596;29;20353;-49
2020/12/24 21:07:35;;;;;;;2.10;1.90;;;10.50;91.50;;;;;;4974697;28;20030;-50
2020/12/24 21:10:01;;;;;;;2.75;2.08;;;10.50;91.10;;;;;;4993481;28;20031;-50
2020/12/24 21:12:26;;;;;;;1.60;1.45;;;10.50;91.10;;;;;;4993190;28;20500;-50
2020/12/24 21:14:52;;;;;;;2.15;1.95;;;10.50;91.20;;;;;;4985793;28;20045;-50
2020/12/24 21:17:18;;;;;;;1.30;1.20;;;10.50;91.20;;;;;;4984292;28;20033;-50
2020/12/24 21:19:43;;;;;;;2.47;1.40;;;10.50;91.20;;;;;;4975939;28;20029;-50
2020/12/24 21:22:09;;;;;;;2.53;1.73;;;10.50;91.20;;;;;;4986353;28;20535;-50
2020/12/24 21:24:35;;;;;;;2.13;1.15;;;10.50;91.10;;;;;;4976290;28;20044;-49
2020/12/24 21:27:00;;;;;;;3.05;1.73;;;10.50;91.10;;;;;;4977016;28;20027;-50
2020/12/24 21:29:26;;;;;;;4.85;2.67;;;10.50;91.10;;;;;;4968037;28;20066;-50
2020/12/24 21:31:55;;;;;;;3.22;1.77;;;10.50;91.10;;;;;;4973221;28;20039;-50
2020/12/24 21:34:22;;;;;;;10.98;3.38;;;10.50;91.20;;;;;;4973047;28;20101;-50
2020/12/24 21:36:48;;;;;;;3.75;1.85;;;10.50;91.20;;;;;;4973080;28;20486;-50
2020/12/24 21:39:14;;;;;;;2.42;1.73;;;10.50;91.20;;;;;;4973509;28;20105;-50
2020/12/24 21:41:39;;;;;;;1.83;0.90;;;10.50;91.10;;;;;;4973360;28;20037;-50
2020/12/24 21:44:05;;;;;;;3.65;1.63;;;10.50;91.20;;;;;;4973322;28;20054;-50
2020/12/24 21:46:31;;;;;;;2.92;1.75;;;10.50;91.10;;;;;;4956069;28;20055;-50
2020/12/24 21:48:56;;;;;;;6.97;2.70;;;10.50;91.20;;;;;;4955280;28;20162;-50
2020/12/24 21:51:22;;;;;;;2.10;1.33;;;10.50;91.20;;;;;;4973341;28;20088;-50
2020/12/24 21:53:48;;;;;;;1.67;1.20;;;10.50;91.20;;;;;;4973834;28;20092;-50
2020/12/24 21:56:18;;;;;;;1.08;0.88;;;10.50;91.10;;;;;;4973760;28;20027;-50
2020/12/24 21:58:44;;;;;;;1.60;1.25;;;10.50;91.10;;;;;;4973256;28;20019;-50
2020/12/24 22:01:11;;;;;;;0.90;0.90;;;10.50;91.20;;;;;;4971823;28;20045;-50
2020/12/24 22:03:36;;;;;;;1.13;0.95;;;10.50;91.20;;;;;;4973327;28;20448;-50
2020/12/24 22:06:02;;;;;;;1.83;1.17;;;10.50;91.20;;;;;;4973825;28;20074;-50
2020/12/24 22:08:28;;;;;;;3.97;1.30;;;10.50;91.20;;;;;;4973260;28;20113;-50
2020/12/24 22:10:54;;;;;;;0.98;0.93;;;10.50;91.20;;;;;;4973532;28;20117;-50
2020/12/24 22:13:19;;;;;;;2.40;1.60;;;10.50;91.10;;;;;;4973301;28;20023;-50